Terminal Aerodrome Forecast
Issued by NWS

Home | Current Version | Previous Version | Text Only | Print | Product List | Glossary On
Versions: 1 2 3 4 5 6 7 8 9 10 11 12 13 14 15 16 17 18 19 20 21 22 23 24 25
000
FTUS41 KRNK 201726
TAFBCB
TAF
KBCB 201726Z 2018/2118 18004KT P6SM OVC020
     FM210300 00000KT 5SM BR OVC010
     FM210900 00000KT 1/2SM FG OVC002
     FM211300 24004KT P6SM BKN025=

USA.gov is the U.S. government's official web portal to all federal, state and local government web resources and services.